Time;durP1;ratioP1;P1;durP2;ratioP2;P2;SDS_P1;SDS_P2;PMS_P1;PMS_P2;Temp;Humidity;BMP_temperature;BMP_pressure;BME280_temperature;BME280_humidity;BME280_pressure;Samples;Min_cycle;Max_cycle;Signal;HPM_P1;HPM_P2
2023/06/03 00:01:24;;;;;;;1.70;1.20;;;11.80;99.90;;;;;;5039674;28;20223;-71
2023/06/03 00:03:50;;;;;;;3.77;1.27;;;11.70;99.90;;;;;;5036306;28;20212;-70
2023/06/03 00:06:16;;;;;;;3.63;1.53;;;11.80;99.90;;;;;;5040053;28;20284;-71
2023/06/03 00:08:44;;;;;;;2.73;1.43;;;11.70;99.90;;;;;;5037270;28;20225;-70
2023/06/03 00:11:11;;;;;;;3.10;1.20;;;11.60;99.90;;;;;;5039888;28;20327;-70
2023/06/03 00:13:37;;;;;;;2.03;1.40;;;11.60;99.90;;;;;;5038941;28;20285;-70
2023/06/03 00:16:03;;;;;;;2.77;1.20;;;11.60;99.90;;;;;;5037490;28;20330;-70
2023/06/03 00:18:30;;;;;;;2.33;1.60;;;11.70;99.90;;;;;;5040797;28;20295;-71
2023/06/03 00:20:55;;;;;;;3.43;1.17;;;11.80;99.90;;;;;;5039051;28;20650;-70
2023/06/03 00:23:21;;;;;;;4.80;1.50;;;11.70;99.90;;;;;;5040471;28;20250;-70
2023/06/03 00:25:47;;;;;;;4.30;1.70;;;11.60;99.90;;;;;;5037177;28;20251;-71
2023/06/03 00:28:13;;;;;;;2.70;1.20;;;11.50;99.90;;;;;;5034962;28;20226;-70
2023/06/03 00:30:38;;;;;;;3.67;1.43;;;11.50;99.90;;;;;;5040288;28;20220;-70
2023/06/03 00:33:04;;;;;;;2.20;1.17;;;11.50;99.90;;;;;;5040566;28;20183;-70
2023/06/03 00:35:30;;;;;;;2.63;1.50;;;11.60;99.90;;;;;;5038899;28;20241;-70
2023/06/03 00:37:56;;;;;;;4.33;1.30;;;11.60;99.90;;;;;;5040150;28;20760;-71
2023/06/03 00:40:21;;;;;;;3.60;1.60;;;11.40;99.90;;;;;;5038329;28;20219;-71
2023/06/03 00:42:47;;;;;;;2.70;1.23;;;11.40;99.90;;;;;;5039215;28;20247;-70
2023/06/03 00:45:13;;;;;;;1.87;1.27;;;11.30;99.90;;;;;;5039765;28;20662;-68
2023/06/03 00:47:39;;;;;;;1.73;1.20;;;11.40;99.90;;;;;;5038489;28;20176;-70
2023/06/03 00:50:06;;;;;;;2.40;1.00;;;11.30;99.90;;;;;;5037177;28;20211;-70
2023/06/03 00:52:33;;;;;;;1.53;1.20;;;11.20;99.90;;;;;;5040921;28;20211;-70
2023/06/03 00:54:59;;;;;;;4.37;1.63;;;11.10;99.90;;;;;;5037332;28;20623;-70
2023/06/03 00:57:26;;;;;;;2.97;1.20;;;11.10;99.90;;;;;;5040153;28;20361;-70
2023/06/03 00:59:52;;;;;;;2.70;1.53;;;11.20;99.90;;;;;;5037099;28;20239;-70
2023/06/03 01:02:19;;;;;;;1.80;1.13;;;11.10;99.90;;;;;;5039812;28;20211;-69
2023/06/03 01:04:46;;;;;;;2.73;1.03;;;11.20;99.90;;;;;;5036932;28;20220;-70
2023/06/03 01:07:23;;;;;;;2.27;1.43;;;11.10;99.90;;;;;;5041107;28;20257;-69
2023/06/03 01:10:19;;;;;;;2.40;0.97;;;11.00;99.90;;;;;;5036461;28;20240;-70
2023/06/03 01:13:06;;;;;;;1.77;1.23;;;10.90;99.90;;;;;;5035540;28;20287;-70
2023/06/03 01:15:35;;;;;;;2.70;1.03;;;11.00;99.90;;;;;;5038188;28;20215;-71
2023/06/03 01:18:04;;;;;;;2.57;1.23;;;11.00;99.90;;;;;;5039762;28;20286;-70
2023/06/03 01:20:31;;;;;;;2.77;1.00;;;11.00;99.90;;;;;;5038327;28;20691;-70
2023/06/03 01:23:12;;;;;;;3.27;1.10;;;11.10;99.90;;;;;;5039768;28;20253;-70
2023/06/03 01:25:41;;;;;;;2.07;0.87;;;11.00;99.90;;;;;;5032739;28;20239;-69
2023/06/03 01:28:07;;;;;;;4.77;1.10;;;11.10;99.90;;;;;;5036718;28;20287;-70
2023/06/03 01:30:34;;;;;;;2.17;1.17;;;11.00;99.90;;;;;;5038955;28;20215;-70
2023/06/03 01:33:00;;;;;;;6.00;1.20;;;11.00;99.90;;;;;;5036462;28;20177;-71
2023/06/03 01:35:26;;;;;;;1.90;0.83;;;10.90;99.90;;;;;;5044621;28;20647;-70
2023/06/03 01:37:52;;;;;;;1.10;0.90;;;11.00;99.90;;;;;;5042281;28;20215;-70
2023/06/03 01:40:19;;;;;;;3.90;1.30;;;10.90;99.90;;;;;;5044278;28;20219;-70
2023/06/03 01:42:45;;;;;;;3.10;1.30;;;10.80;99.90;;;;;;5041289;28;20617;-70
2023/06/03 01:45:11;;;;;;;2.03;1.10;;;10.90;99.90;;;;;;5042968;28;20204;-70
2023/06/03 01:47:36;;;;;;;3.90;1.30;;;10.70;99.90;;;;;;5041357;28;20183;-70
2023/06/03 01:50:03;;;;;;;1.27;1.00;;;10.60;99.90;;;;;;5041328;28;20635;-70
2023/06/03 01:52:28;;;;;;;3.17;1.00;;;10.60;99.90;;;;;;5042730;28;20203;-70
2023/06/03 01:54:54;;;;;;;1.73;1.20;;;10.60;99.90;;;;;;5041138;28;20224;-69
2023/06/03 01:57:20;;;;;;;4.50;1.10;;;10.60;99.90;;;;;;5043126;28;20242;-71
2023/06/03 01:59:45;;;;;;;1.73;1.03;;;10.60;99.90;;;;;;5041163;28;20275;-70
2023/06/03 02:02:11;;;;;;;1.43;1.30;;;10.70;99.90;;;;;;5040173;28;20288;-70
2023/06/03 02:04:37;;;;;;;2.33;1.30;;;10.80;99.90;;;;;;5042172;28;20690;-70
2023/06/03 02:07:02;;;;;;;2.33;1.10;;;10.60;99.90;;;;;;5038873;28;20586;-70
2023/06/03 02:09:29;;;;;;;2.40;1.20;;;10.60;99.90;;;;;;5042548;28;20580;-68
2023/06/03 02:11:56;;;;;;;1.70;1.30;;;10.40;99.90;;;;;;5039797;28;20300;-71
2023/06/03 02:14:22;;;;;;;4.30;1.30;;;10.30;99.90;;;;;;5042828;28;20218;-70
2023/06/03 02:16:48;;;;;;;1.90;1.17;;;10.40;99.90;;;;;;5041123;28;20224;-70
2023/06/03 02:19:19;;;;;;;2.20;0.87;;;10.40;99.90;;;;;;5042687;28;20686;-70
2023/06/03 02:21:45;;;;;;;1.93;1.20;;;10.40;99.90;;;;;;5040927;28;20228;-70
2023/06/03 02:24:14;;;;;;;1.97;0.93;;;10.60;99.90;;;;;;5040865;28;20651;-70
2023/06/03 02:26:50;;;;;;;1.80;1.20;;;10.40;99.90;;;;;;5040057;28;20214;-70
2023/06/03 02:29:18;;;;;;;3.30;1.30;;;10.50;99.90;;;;;;5039321;28;20676;-72
2023/06/03 02:31:44;;;;;;;1.90;1.00;;;10.30;99.90;;;;;;5039829;28;20307;-70
2023/06/03 02:34:10;;;;;;;2.40;1.20;;;10.30;99.90;;;;;;5042747;28;20253;-71
2023/06/03 02:36:35;;;;;;;2.80;1.37;;;10.40;99.90;;;;;;5040604;28;20635;-71
2023/06/03 02:39:01;;;;;;;2.23;1.23;;;10.50;99.90;;;;;;5041112;28;20713;-70
2023/06/03 02:41:27;;;;;;;2.00;1.20;;;10.30;99.90;;;;;;5041109;28;20207;-70
2023/06/03 02:43:52;;;;;;;3.10;1.20;;;10.20;99.90;;;;;;5033826;28;20230;-70
2023/06/03 02:46:18;;;;;;;2.37;1.10;;;10.10;99.90;;;;;;5028460;28;20303;-70
2023/06/03 02:48:44;;;;;;;3.07;1.80;;;10.20;99.90;;;;;;5034680;28;20215;-70
2023/06/03 02:51:09;;;;;;;3.47;1.47;;;10.30;99.90;;;;;;5030307;28;20205;-70
2023/06/03 02:53:35;;;;;;;1.80;1.10;;;10.30;99.90;;;;;;5037142;28;20286;-71
2023/06/03 02:56:01;;;;;;;2.23;1.10;;;10.30;99.90;;;;;;5031039;28;20209;-69
2023/06/03 02:58:26;;;;;;;2.40;1.30;;;10.30;99.90;;;;;;5038347;28;20212;-70
2023/06/03 03:00:52;;;;;;;2.67;1.70;;;10.40;99.90;;;;;;5033358;28;20218;-70
2023/06/03 03:03:18;;;;;;;2.07;1.50;;;10.30;99.90;;;;;;5036905;28;20212;-71
2023/06/03 03:05:43;;;;;;;9.73;7.47;;;10.30;99.90;;;;;;5036220;28;20210;-69
2023/06/03 03:08:09;;;;;;;5.87;4.00;;;10.20;99.90;;;;;;5036767;28;20205;-70
2023/06/03 03:10:35;;;;;;;3.37;3.07;;;10.20;99.90;;;;;;5038478;28;20207;-70
2023/06/03 03:13:00;;;;;;;2.83;1.90;;;10.30;99.90;;;;;;5037909;28;20214;-70
2023/06/03 03:15:26;;;;;;;4.07;1.73;;;10.40;99.90;;;;;;5038025;28;20220;-70
2023/06/03 03:17:52;;;;;;;7.93;4.00;;;10.50;99.90;;;;;;5038208;28;20192;-70
2023/06/03 03:20:17;;;;;;;6.47;2.90;;;10.30;99.90;;;;;;5034234;28;20224;-70
2023/06/03 03:22:44;;;;;;;3.87;1.50;;;10.10;99.90;;;;;;5040742;23;20243;-76
2023/06/03 03:25:11;;;;;;;3.87;1.60;;;10.00;99.90;;;;;;5031532;28;20222;-78
2023/06/03 03:27:37;;;;;;;3.23;1.50;;;10.20;99.90;;;;;;5036974;28;20291;-78
2023/06/03 03:30:04;;;;;;;1.37;1.00;;;10.60;99.90;;;;;;5037098;28;20196;-79
2023/06/03 03:32:31;;;;;;;1.60;1.07;;;10.80;99.90;;;;;;5035138;28;20205;-78
2023/06/03 03:35:09;;;;;;;2.63;0.97;;;10.90;99.90;;;;;;5037331;28;20702;-78
2023/06/03 03:37:34;;;;;;;2.67;1.13;;;11.40;99.90;;;;;;5038187;28;20214;-78
2023/06/03 03:40:00;;;;;;;1.17;0.80;;;11.80;99.90;;;;;;5034533;28;20207;-78
2023/06/03 03:42:26;;;;;;;3.03;1.27;;;12.10;99.90;;;;;;5038719;28;20374;-78
2023/06/03 03:44:51;;;;;;;1.92;1.00;;;12.80;99.90;;;;;;5042975;28;20342;-79
2023/06/03 03:47:21;;;;;;;1.35;0.80;;;13.20;99.90;;;;;;5039327;28;20211;-77
2023/06/03 03:49:47;;;;;;;1.83;0.73;;;12.90;99.90;;;;;;5040384;28;20594;-78
2023/06/03 03:52:18;;;;;;;2.03;0.95;;;13.10;99.90;;;;;;5045264;28;20291;-78
2023/06/03 03:54:43;;;;;;;1.73;0.90;;;13.00;99.90;;;;;;5033371;28;20592;-78
2023/06/03 03:57:12;;;;;;;2.17;1.00;;;13.30;99.90;;;;;;5039070;28;20083;-79
2023/06/03 03:59:37;;;;;;;2.17;1.15;;;13.80;99.90;;;;;;5040960;28;20267;-80
2023/06/03 04:02:03;;;;;;;2.88;1.17;;;14.90;99.90;;;;;;5039334;28;20287;-79
2023/06/03 04:04:36;;;;;;;4.32;1.27;;;15.10;99.90;;;;;;5038813;28;20246;-78
2023/06/03 04:07:01;;;;;;;1.17;0.90;;;15.80;99.90;;;;;;5036738;28;20216;-79
2023/06/03 04:09:27;;;;;;;2.00;1.08;;;15.10;99.90;;;;;;5041811;28;20658;-78
2023/06/03 04:11:53;;;;;;;2.72;1.45;;;14.50;99.90;;;;;;5038542;28;20184;-78
2023/06/03 04:14:35;;;;;;;1.85;1.15;;;14.90;99.90;;;;;;5036399;28;20208;-78
2023/06/03 04:17:02;;;;;;;2.30;1.20;;;14.50;99.90;;;;;;5036792;28;20532;-79
2023/06/03 04:19:37;;;;;;;2.97;1.10;;;15.00;99.90;;;;;;5037457;28;20265;-79
2023/06/03 04:22:06;;;;;;;2.15;1.00;;;15.40;99.90;;;;;;5038019;28;20237;-79
2023/06/03 04:24:34;;;;;;;3.45;1.30;;;15.00;99.90;;;;;;5039021;28;20216;-78
2023/06/03 04:27:02;;;;;;;1.60;0.95;;;15.10;99.90;;;;;;5033655;28;20176;-79
2023/06/03 04:29:28;;;;;;;2.15;1.00;;;16.20;99.90;;;;;;5043205;28;20254;-79
2023/06/03 04:31:54;;;;;;;2.80;1.45;;;16.60;99.90;;;;;;5037876;28;20884;-78
2023/06/03 04:34:19;;;;;;;2.38;1.30;;;16.30;99.90;;;;;;5039813;28;20262;-79
2023/06/03 04:36:45;;;;;;;2.22;1.13;;;16.60;99.90;;;;;;5044517;28;20223;-79
2023/06/03 04:39:11;;;;;;;1.90;1.02;;;16.40;99.90;;;;;;5035019;28;20173;-79
2023/06/03 04:41:37;;;;;;;1.88;1.10;;;17.10;99.90;;;;;;5033637;28;20191;-79
2023/06/03 04:44:03;;;;;;;3.25;1.65;;;18.10;99.90;;;;;;5030330;28;20239;-79
2023/06/03 04:46:29;;;;;;;2.25;1.25;;;18.60;99.90;;;;;;5043131;28;20717;-79
2023/06/03 04:49:01;;;;;;;1.73;1.17;;;17.50;99.90;;;;;;5036484;28;20215;-78
2023/06/03 04:51:33;;;;;;;1.70;1.13;;;17.70;99.90;;;;;;5039753;28;20226;-79
2023/06/03 04:54:00;;;;;;;2.70;1.38;;;16.90;99.90;;;;;;5036273;28;20195;-79
2023/06/03 04:56:29;;;;;;;2.78;1.30;;;17.30;99.90;;;;;;5038508;28;20207;-79
2023/06/03 04:59:00;;;;;;;3.47;1.60;;;16.90;99.90;;;;;;5038194;28;20215;-78
2023/06/03 05:01:27;;;;;;;2.78;1.80;;;16.90;99.90;;;;;;5032699;28;20268;-79
2023/06/03 05:03:53;;;;;;;2.70;1.70;;;17.10;99.90;;;;;;5031139;28;20208;-78
2023/06/03 05:06:19;;;;;;;4.95;1.38;;;17.40;99.90;;;;;;5038560;28;20273;-79
2023/06/03 05:08:49;;;;;;;3.05;1.67;;;17.60;99.90;;;;;;5046505;28;20172;-79
2023/06/03 05:11:16;;;;;;;5.80;4.35;;;17.40;99.90;;;;;;5043664;28;20290;-77
2023/06/03 05:13:42;;;;;;;3.40;1.83;;;17.80;99.90;;;;;;5041233;28;20216;-79
2023/06/03 05:16:07;;;;;;;2.65;1.38;;;18.20;99.90;;;;;;5037106;28;20216;-78
2023/06/03 05:18:35;;;;;;;2.58;1.73;;;17.60;99.90;;;;;;5034175;28;20245;-79
2023/06/03 05:21:02;;;;;;;3.38;1.65;;;16.60;99.90;;;;;;5034924;28;20176;-78
2023/06/03 05:23:27;;;;;;;4.63;1.70;;;15.70;99.90;;;;;;5041789;28;20251;-78
2023/06/03 05:25:53;;;;;;;8.35;1.20;;;15.50;99.90;;;;;;5042238;28;20272;-77
2023/06/03 05:28:19;;;;;;;4.65;1.60;;;15.90;99.90;;;;;;5031322;28;20691;-79
2023/06/03 05:30:44;;;;;;;4.25;1.40;;;15.90;99.90;;;;;;5045300;28;20663;-78
2023/06/03 05:33:26;;;;;;;2.70;1.60;;;16.80;99.90;;;;;;5040862;28;20201;-79
2023/06/03 05:35:52;;;;;;;4.60;1.45;;;17.40;99.90;;;;;;5042866;28;20187;-78
2023/06/03 05:38:17;;;;;;;4.95;2.15;;;16.90;99.90;;;;;;5040301;28;20204;-77
2023/06/03 05:40:43;;;;;;;3.53;2.30;;;16.70;99.90;;;;;;5038856;28;20210;-78
2023/06/03 05:43:09;;;;;;;4.88;1.63;;;17.50;99.90;;;;;;5040132;28;20227;-78
2023/06/03 05:45:35;;;;;;;3.72;1.42;;;18.20;99.90;;;;;;5045482;28;20223;-79
2023/06/03 05:48:00;;;;;;;3.97;1.88;;;18.70;99.90;;;;;;5044032;28;20271;-79
2023/06/03 05:50:26;;;;;;;3.92;2.05;;;19.50;99.00;;;;;;5045910;28;20541;-79
2023/06/03 05:52:52;;;;;;;6.03;1.60;;;18.80;99.30;;;;;;5042153;28;20228;-78
2023/06/03 05:55:17;;;;;;;3.72;1.67;;;18.70;99.70;;;;;;5032007;28;20209;-78
2023/06/03 05:57:43;;;;;;;3.22;1.73;;;19.00;99.30;;;;;;5038662;28;20714;-79
2023/06/03 06:00:09;;;;;;;3.97;1.70;;;19.60;98.00;;;;;;5039786;28;20183;-76
2023/06/03 06:02:34;;;;;;;4.30;1.52;;;19.50;97.10;;;;;;5042075;28;20204;-78
2023/06/03 06:05:00;;;;;;;2.65;1.48;;;19.30;98.10;;;;;;5041618;28;20211;-78
2023/06/03 06:07:26;;;;;;;3.90;2.17;;;20.00;97.50;;;;;;5035175;28;20209;-76
2023/06/03 06:09:52;;;;;;;2.90;1.80;;;20.60;95.60;;;;;;5045554;28;20215;-76
2023/06/03 06:12:17;;;;;;;2.25;1.30;;;21.50;94.30;;;;;;5047602;28;20228;-77
2023/06/03 06:14:43;;;;;;;3.67;1.75;;;21.00;93.50;;;;;;5041966;28;20183;-77
2023/06/03 06:17:10;;;;;;;4.50;1.92;;;21.30;93.00;;;;;;5036144;28;20213;-77
2023/06/03 06:19:35;;;;;;;2.63;1.90;;;20.30;94.10;;;;;;5044850;28;20207;-77
2023/06/03 06:22:02;;;;;;;7.68;2.42;;;20.20;93.80;;;;;;5041071;28;20741;-77
2023/06/03 06:24:27;;;;;;;4.53;1.92;;;20.20;93.60;;;;;;5047358;28;20228;-76
2023/06/03 06:26:53;;;;;;;6.20;1.80;;;19.90;94.30;;;;;;5052625;28;20202;-77
2023/06/03 06:29:19;;;;;;;3.08;1.95;;;20.80;93.30;;;;;;5054533;28;20263;-76
2023/06/03 06:31:45;;;;;;;2.95;1.40;;;20.60;93.40;;;;;;5044030;28;20282;-77
2023/06/03 06:34:15;;;;;;;4.10;1.55;;;21.30;93.10;;;;;;5032072;28;20227;-76
2023/06/03 06:36:52;;;;;;;2.88;1.58;;;21.70;91.80;;;;;;5032861;28;20562;-76
2023/06/03 06:39:46;;;;;;;4.15;1.92;;;21.50;91.40;;;;;;5046348;28;20240;-76
2023/06/03 06:42:26;;;;;;;3.47;1.60;;;21.10;92.00;;;;;;5047813;28;20175;-76
2023/06/03 06:44:52;;;;;;;4.13;1.60;;;22.20;91.10;;;;;;5042923;28;20258;-77
2023/06/03 06:47:30;;;;;;;10.93;6.90;;;22.90;89.30;;;;;;5046191;28;20204;-75
2023/06/03 06:49:57;;;;;;;8.00;4.72;;;22.30;89.70;;;;;;5047617;28;20563;-76
2023/06/03 06:52:24;;;;;;;5.80;2.72;;;21.40;90.50;;;;;;5052002;28;20216;-77
2023/06/03 06:54:53;;;;;;;2.97;1.80;;;21.60;90.40;;;;;;5052129;28;20279;-77
2023/06/03 06:57:23;;;;;;;5.90;1.60;;;22.30;90.70;;;;;;5051927;28;20209;-76
2023/06/03 06:59:53;;;;;;;4.22;1.75;;;22.20;90.30;;;;;;5047131;28;20171;-77
2023/06/03 07:02:20;;;;;;;4.80;1.70;;;22.30;88.70;;;;;;5050128;28;20208;-76
2023/06/03 07:04:48;;;;;;;3.53;1.70;;;24.10;85.60;;;;;;5039790;28;20205;-77
2023/06/03 07:07:13;;;;;;;4.00;1.55;;;24.70;84.60;;;;;;5052871;28;20215;-77
2023/06/03 07:09:41;;;;;;;4.97;2.35;;;24.30;81.50;;;;;;5046303;28;20204;-77
2023/06/03 07:12:10;;;;;;;3.47;2.00;;;23.40;81.10;;;;;;5043817;28;20180;-77
2023/06/03 07:14:35;;;;;;;3.58;2.10;;;22.30;85.20;;;;;;5039126;28;20169;-77
2023/06/03 07:17:01;;;;;;;3.17;1.75;;;22.30;85.20;;;;;;5041681;28;20210;-77
2023/06/03 07:19:33;;;;;;;2.75;1.73;;;22.40;85.10;;;;;;5038213;28;20284;-76
2023/06/03 07:21:59;;;;;;;3.20;1.80;;;23.70;85.00;;;;;;5043953;28;20291;-76
2023/06/03 07:24:25;;;;;;;2.38;2.00;;;23.80;82.80;;;;;;5046914;28;20224;-76
2023/06/03 07:26:50;;;;;;;3.10;1.50;;;23.00;82.50;;;;;;5052178;28;20191;-76
2023/06/03 07:29:16;;;;;;;4.20;1.73;;;23.20;81.90;;;;;;5041282;28;20303;-77
2023/06/03 07:31:42;;;;;;;4.18;2.20;;;23.70;80.90;;;;;;5047125;28;20196;-77
2023/06/03 07:34:08;;;;;;;7.82;4.18;;;23.80;79.00;;;;;;5044742;28;20275;-76
2023/06/03 07:36:34;;;;;;;3.30;1.70;;;24.40;80.20;;;;;;5042327;28;20207;-77
2023/06/03 07:39:06;;;;;;;4.40;1.83;;;23.10;79.70;;;;;;5044604;28;20176;-76
2023/06/03 07:41:39;;;;;;;4.22;1.95;;;23.70;80.90;;;;;;5041509;28;20167;-76
2023/06/03 07:44:07;;;;;;;3.25;1.98;;;23.40;79.10;;;;;;5041461;28;20224;-76
2023/06/03 07:46:42;;;;;;;4.65;1.88;;;23.10;80.00;;;;;;5047025;28;20249;-76
2023/06/03 07:49:16;;;;;;;3.85;1.92;;;22.90;80.60;;;;;;5045703;28;20234;-76
2023/06/03 07:51:48;;;;;;;3.03;1.48;;;22.30;81.60;;;;;;5038201;28;20216;-76
2023/06/03 07:54:14;;;;;;;5.78;2.00;;;24.00;81.10;;;;;;5037548;28;20205;-77
2023/06/03 07:56:40;;;;;;;4.13;1.65;;;23.90;78.10;;;;;;5031668;28;20173;-77
2023/06/03 07:59:10;;;;;;;4.97;1.67;;;23.80;78.00;;;;;;5035375;28;20204;-76
2023/06/03 08:01:36;;;;;;;3.30;1.85;;;24.40;76.10;;;;;;5035936;28;20197;-78
2023/06/03 08:04:25;;;;;;;3.45;1.58;;;24.70;75.00;;;;;;5037786;28;20270;-77
2023/06/03 08:06:52;;;;;;;2.25;1.30;;;25.30;72.50;;;;;;5036597;28;20211;-77
2023/06/03 08:09:27;;;;;;;5.03;1.42;;;24.30;74.10;;;;;;5035891;28;20212;-77
2023/06/03 08:11:54;;;;;;;3.33;1.38;;;24.90;72.40;;;;;;5040860;28;20593;-77
2023/06/03 08:14:21;;;;;;;2.28;1.55;;;24.40;71.60;;;;;;5036072;28;21380;-77
2023/06/03 08:16:47;;;;;;;3.42;1.77;;;23.60;73.00;;;;;;5041926;28;20352;-77
2023/06/03 08:19:16;;;;;;;5.22;2.92;;;22.60;73.70;;;;;;5038438;28;20728;-77
2023/06/03 08:21:44;;;;;;;4.03;2.75;;;22.50;74.70;;;;;;5041837;28;20215;-76
2023/06/03 08:24:10;;;;;;;5.43;1.67;;;22.70;75.10;;;;;;5037326;28;20212;-76
2023/06/03 08:26:38;;;;;;;6.35;2.72;;;23.00;74.10;;;;;;5042171;28;20218;-77
2023/06/03 08:29:04;;;;;;;4.07;1.50;;;24.30;74.30;;;;;;5035018;28;20284;-77
2023/06/03 08:31:33;;;;;;;1.98;1.50;;;23.60;72.90;;;;;;5026828;28;20284;-78
2023/06/03 08:34:01;;;;;;;3.05;1.55;;;23.20;72.60;;;;;;5037530;28;20208;-77
2023/06/03 08:36:26;;;;;;;4.50;1.75;;;22.70;73.80;;;;;;5028014;28;20229;-77
2023/06/03 08:38:52;;;;;;;4.43;1.60;;;22.10;74.50;;;;;;5038360;28;20672;-77
2023/06/03 08:41:18;;;;;;;7.25;2.70;;;22.60;75.50;;;;;;5042053;28;20204;-77
2023/06/03 08:43:52;;;;;;;1.95;1.20;;;22.80;74.80;;;;;;5045622;28;20200;-77
2023/06/03 08:46:26;;;;;;;4.32;2.25;;;22.50;75.40;;;;;;5036619;28;20591;-77
2023/06/03 08:49:07;;;;;;;3.05;1.30;;;22.50;75.10;;;;;;5041745;28;20207;-77
2023/06/03 08:51:38;;;;;;;3.65;1.45;;;22.40;75.80;;;;;;5044958;28;20216;-77
2023/06/03 08:54:11;;;;;;;3.55;2.28;;;22.60;75.20;;;;;;5037970;28;20200;-76
2023/06/03 08:56:42;;;;;;;3.20;1.50;;;21.50;77.20;;;;;;5040281;28;20255;-77
2023/06/03 08:59:11;;;;;;;3.05;1.67;;;21.80;78.10;;;;;;5038062;28;20208;-76
2023/06/03 09:01:37;;;;;;;3.35;1.35;;;21.20;77.90;;;;;;5043736;28;20204;-76
2023/06/03 09:04:04;;;;;;;3.47;1.75;;;21.20;77.70;;;;;;5038969;28;20231;-76
2023/06/03 09:06:30;;;;;;;5.80;1.48;;;21.60;77.40;;;;;;5032435;28;20710;-76
2023/06/03 09:08:57;;;;;;;3.33;1.25;;;21.20;78.20;;;;;;5036156;28;20183;-76
2023/06/03 09:11:25;;;;;;;5.28;1.38;;;20.80;78.70;;;;;;5039367;28;20247;-77
2023/06/03 09:13:52;;;;;;;1.77;1.23;;;21.20;78.40;;;;;;5040340;28;20211;-75
2023/06/03 09:16:18;;;;;;;2.63;1.20;;;21.10;79.10;;;;;;5033550;28;20782;-76
2023/06/03 09:18:47;;;;;;;4.55;1.58;;;20.90;77.00;;;;;;5040784;28;20634;-77
2023/06/03 09:21:14;;;;;;;3.33;1.23;;;20.70;77.60;;;;;;5038285;28;20238;-77
2023/06/03 09:23:40;;;;;;;5.15;2.17;;;20.60;78.70;;;;;;5063095;22;20290;-75
2023/06/03 09:26:06;;;;;;;9.25;3.25;;;20.50;79.50;;;;;;5042382;28;20270;-75
2023/06/03 09:28:35;;;;;;;2.95;1.33;;;20.10;79.10;;;;;;5039573;28;20219;-75
2023/06/03 09:31:01;;;;;;;1.33;1.10;;;20.30;80.00;;;;;;5046974;28;20200;-76
2023/06/03 09:33:27;;;;;;;2.60;1.15;;;21.00;79.40;;;;;;5049544;28;20204;-78
2023/06/03 09:36:25;;;;;;;2.92;1.20;;;21.80;77.60;;;;;;5053063;28;20180;-76
2023/06/03 09:38:55;;;;;;;4.13;1.38;;;21.80;75.70;;;;;;4987521;28;20211;-76
2023/06/03 09:41:30;;;;;;;3.22;1.30;;;21.80;74.50;;;;;;5044503;28;20215;-75
2023/06/03 09:44:06;;;;;;;1.85;1.23;;;21.00;75.30;;;;;;5047601;28;20288;-75
2023/06/03 09:46:33;;;;;;;4.47;1.23;;;20.50;77.20;;;;;;5034002;28;20642;-76
2023/06/03 09:49:09;;;;;;;3.47;2.15;;;20.20;77.60;;;;;;5033337;28;20208;-75
2023/06/03 09:51:41;;;;;;;4.78;1.50;;;20.70;77.50;;;;;;5033363;28;20211;-75
2023/06/03 09:54:11;;;;;;;3.60;1.58;;;20.80;78.40;;;;;;5036224;28;20202;-73
2023/06/03 09:56:37;;;;;;;4.30;1.25;;;21.30;76.90;;;;;;5036572;28;20486;-73
2023/06/03 09:59:25;;;;;;;5.18;1.40;;;21.20;77.10;;;;;;5042899;28;20302;-76
2023/06/03 10:01:54;;;;;;;8.07;2.40;;;21.10;77.30;;;;;;5036902;28;20210;-74
2023/06/03 10:04:23;;;;;;;5.07;2.42;;;20.20;76.40;;;;;;5041038;28;20223;-73
2023/06/03 10:07:09;;;;;;;4.82;2.00;;;19.60;77.00;;;;;;5023998;28;20269;-74
2023/06/03 10:09:35;;;;;;;5.57;1.70;;;19.50;79.00;;;;;;5040449;28;20597;-74
2023/06/03 10:12:00;;;;;;;4.28;1.20;;;19.40;78.30;;;;;;5039790;28;20179;-75
2023/06/03 10:14:26;;;;;;;4.53;1.77;;;19.60;79.00;;;;;;5040192;28;21737;-74
2023/06/03 10:17:07;;;;;;;3.30;1.63;;;19.80;78.60;;;;;;5044686;28;20642;-74
2023/06/03 10:19:34;;;;;;;3.13;1.60;;;20.10;77.90;;;;;;5042170;28;20247;-74
2023/06/03 10:22:02;;;;;;;2.13;1.42;;;20.30;78.00;;;;;;5040552;28;20228;-73
2023/06/03 10:24:33;;;;;;;3.85;1.48;;;19.90;78.10;;;;;;5039421;28;20231;-74
2023/06/03 10:26:59;;;;;;;5.65;1.42;;;20.00;78.50;;;;;;5040128;28;20212;-73
2023/06/03 10:29:25;;;;;;;3.08;1.30;;;19.90;78.10;;;;;;5034067;28;20239;-74
2023/06/03 10:31:54;;;;;;;4.03;2.30;;;19.60;77.40;;;;;;5039086;28;20214;-74
2023/06/03 10:34:20;;;;;;;2.33;1.10;;;19.80;77.40;;;;;;5040801;28;20324;-74
2023/06/03 10:36:57;;;;;;;3.80;1.10;;;19.60;76.70;;;;;;5043036;28;20253;-76
2023/06/03 10:39:25;;;;;;;2.58;1.17;;;20.00;76.70;;;;;;5038584;28;20686;-75
2023/06/03 10:41:59;;;;;;;3.60;1.42;;;20.60;75.90;;;;;;5034693;28;20187;-74
2023/06/03 10:44:25;;;;;;;2.72;0.93;;;20.70;74.70;;;;;;5036560;28;20220;-76
2023/06/03 10:47:08;;;;;;;2.08;1.00;;;21.10;74.20;;;;;;5038605;28;20219;-75
2023/06/03 10:49:38;;;;;;;2.70;0.98;;;21.30;76.00;;;;;;5035646;28;20287;-74
2023/06/03 10:52:31;;;;;;;2.20;1.45;;;21.60;76.10;;;;;;5036554;28;20510;-74
2023/06/03 10:55:18;;;;;;;3.90;1.65;;;21.90;75.90;;;;;;5038547;28;20932;-75
2023/06/03 10:57:52;;;;;;;4.88;1.30;;;22.10;76.30;;;;;;5038973;28;20219;-73
2023/06/03 11:01:05;;;;;;;2.75;1.30;;;22.40;75.70;;;;;;5035722;28;21024;-73
2023/06/03 11:03:51;;;;;;;5.53;1.60;;;22.30;74.30;;;;;;5025452;28;20216;-74
2023/06/03 11:06:25;;;;;;;2.35;1.23;;;21.30;75.60;;;;;;5027567;28;20234;-74
2023/06/03 11:09:15;;;;;;;1.55;1.00;;;20.80;76.30;;;;;;5037520;28;20177;-74
2023/06/03 11:11:41;;;;;;;3.17;1.40;;;21.10;77.60;;;;;;5035204;28;20204;-73
2023/06/03 11:14:22;;;;;;;2.45;1.30;;;21.40;75.20;;;;;;5034543;28;20677;-74
2023/06/03 11:16:59;;;;;;;2.60;1.05;;;21.40;74.00;;;;;;5041359;28;20232;-72
2023/06/03 11:19:44;;;;;;;2.17;1.27;;;21.00;74.90;;;;;;5034087;28;20293;-74
2023/06/03 11:22:11;;;;;;;1.20;1.00;;;21.00;75.30;;;;;;5039481;28;20269;-73
2023/06/03 11:24:40;;;;;;;3.60;1.42;;;20.90;75.50;;;;;;5039446;28;20212;-74
2023/06/03 11:27:14;;;;;;;4.38;1.52;;;21.30;76.20;;;;;;5043141;28;20258;-74
2023/06/03 11:29:46;;;;;;;3.15;1.15;;;21.40;75.40;;;;;;5039810;28;20171;-74
2023/06/03 11:32:35;;;;;;;3.05;1.30;;;21.60;74.00;;;;;;5043830;28;20721;-74
2023/06/03 11:35:03;;;;;;;3.78;1.38;;;21.60;73.90;;;;;;5040795;28;20211;-74
2023/06/03 11:37:41;;;;;;;5.53;1.42;;;20.90;74.70;;;;;;5044235;28;20863;-74
2023/06/03 11:40:18;;;;;;;2.70;1.30;;;21.10;75.60;;;;;;5038368;28;20682;-74
2023/06/03 11:42:47;;;;;;;2.13;1.00;;;20.80;75.80;;;;;;5043666;28;20200;-74
2023/06/03 11:45:21;;;;;;;3.00;1.02;;;20.70;75.90;;;;;;5043331;28;20572;-73
2023/06/03 11:47:53;;;;;;;9.20;1.60;;;20.70;77.10;;;;;;5047014;28;20175;-74
2023/06/03 11:50:20;;;;;;;1.65;1.08;;;20.60;76.50;;;;;;5040554;28;20214;-75
2023/06/03 11:52:45;;;;;;;3.08;1.48;;;20.40;78.00;;;;;;5036169;28;20197;-74
2023/06/03 11:55:21;;;;;;;3.42;1.27;;;20.70;77.10;;;;;;5038143;28;20219;-75
2023/06/03 11:57:46;;;;;;;2.67;1.40;;;20.90;76.90;;;;;;5041688;28;20725;-75
2023/06/03 12:00:13;;;;;;;5.85;1.67;;;21.10;78.00;;;;;;5038430;28;20187;-74
2023/06/03 12:02:46;;;;;;;4.97;1.15;;;21.20;78.10;;;;;;5039177;28;20188;-75
2023/06/03 12:05:16;;;;;;;3.75;1.50;;;21.10;76.40;;;;;;5036008;28;20216;-75
2023/06/03 12:07:52;;;;;;;1.73;1.08;;;20.60;76.30;;;;;;5034591;28;20585;-75
2023/06/03 12:10:18;;;;;;;3.28;1.17;;;20.40;77.00;;;;;;5034650;28;20204;-74
2023/06/03 12:12:50;;;;;;;2.42;1.10;;;20.00;77.50;;;;;;5038455;28;20204;-75
2023/06/03 12:15:16;;;;;;;3.90;1.42;;;20.20;77.60;;;;;;5033484;28;20239;-75
2023/06/03 12:17:42;;;;;;;5.30;1.27;;;20.10;77.70;;;;;;5037421;28;20176;-75
2023/06/03 12:20:09;;;;;;;4.88;2.80;;;20.00;78.00;;;;;;5037659;28;20207;-75
2023/06/03 12:22:34;;;;;;;4.60;2.53;;;20.00;79.20;;;;;;5027984;28;20270;-74
2023/06/03 12:25:00;;;;;;;3.30;1.55;;;20.40;79.30;;;;;;5036205;28;20227;-74
2023/06/03 12:27:26;;;;;;;1.60;1.17;;;20.50;79.20;;;;;;5030966;28;20216;-76
2023/06/03 12:29:56;;;;;;;2.85;1.13;;;20.50;78.40;;;;;;5034161;28;20621;-75
2023/06/03 12:32:28;;;;;;;3.10;1.45;;;20.50;78.60;;;;;;5035124;28;20220;-75
2023/06/03 12:34:55;;;;;;;2.47;1.30;;;20.50;78.90;;;;;;5036316;28;20219;-74
2023/06/03 12:37:30;;;;;;;4.70;1.38;;;20.60;78.30;;;;;;5038743;28;20238;-76
2023/06/03 12:39:57;;;;;;;3.97;1.45;;;20.60;78.30;;;;;;5034488;28;20214;-74
2023/06/03 12:42:37;;;;;;;3.10;1.35;;;20.40;77.50;;;;;;5037969;28;20215;-75
2023/06/03 12:45:03;;;;;;;5.00;1.25;;;20.50;78.60;;;;;;5039865;28;20572;-75
2023/06/03 12:47:40;;;;;;;3.55;1.33;;;20.70;78.20;;;;;;5039639;28;20184;-75
2023/06/03 12:50:07;;;;;;;4.47;1.77;;;20.70;77.80;;;;;;5039359;28;20199;-76
2023/06/03 12:52:36;;;;;;;2.80;1.08;;;20.20;79.40;;;;;;5038868;28;20622;-75
2023/06/03 12:55:03;;;;;;;2.17;1.40;;;20.30;78.90;;;;;;5039759;28;20207;-76
2023/06/03 12:57:32;;;;;;;4.35;1.27;;;20.50;79.80;;;;;;5040712;28;20211;-75